createdAt,value
2023-04-02T00:00:54.490Z,6.45
2023-04-02T00:01:54.471Z,6.42
2023-04-02T00:02:54.627Z,6.41
2023-04-02T00:03:54.473Z,6.35
2023-04-02T00:04:54.435Z,6.35
2023-04-02T00:05:54.421Z,6.36
2023-04-02T00:06:54.442Z,6.35
2023-04-02T00:07:54.395Z,6.30
2023-04-02T00:08:54.395Z,6.26
2023-04-02T00:09:54.364Z,6.24
2023-04-02T00:10:54.424Z,6.28
2023-04-02T00:11:54.341Z,6.28
2023-04-02T00:12:54.374Z,6.30
2023-04-02T00:13:54.327Z,6.28
2023-04-02T00:14:54.338Z,6.28
2023-04-02T00:15:54.315Z,6.26
2023-04-02T00:16:54.314Z,6.28
2023-04-02T00:17:54.299Z,6.27
2023-04-02T00:18:54.306Z,6.27
2023-04-02T00:19:54.261Z,6.26
2023-04-02T00:20:54.263Z,6.27
2023-04-02T00:21:54.261Z,6.26
2023-04-02T00:22:54.232Z,6.24
2023-04-02T00:23:54.241Z,6.30
2023-04-02T00:24:54.225Z,6.30
2023-04-02T00:25:54.231Z,6.28
2023-04-02T00:26:54.195Z,6.24
2023-04-02T00:27:54.195Z,6.22
2023-04-02T00:28:54.194Z,6.22
2023-04-02T00:29:54.193Z,6.19
2023-04-02T00:30:54.166Z,6.19
2023-04-02T00:31:54.238Z,6.17
2023-04-02T00:32:54.180Z,6.09
2023-04-02T00:33:54.144Z,6.12
2023-04-02T00:34:54.113Z,6.07
2023-04-02T00:35:54.211Z,6.12
2023-04-02T00:36:54.091Z,6.09
2023-04-02T00:37:54.117Z,6.14
2023-04-02T00:38:54.067Z,6.12
2023-04-02T00:39:54.073Z,6.16
2023-04-02T00:40:54.048Z,6.11
2023-04-02T00:41:54.064Z,6.09
2023-04-02T00:42:54.024Z,6.09
2023-04-02T00:43:54.039Z,6.02
2023-04-02T00:44:54.019Z,6.01
2023-04-02T00:45:54.041Z,6.01
2023-04-02T00:46:54.025Z,6.02
2023-04-02T00:47:54.011Z,5.99
2023-04-02T00:48:53.973Z,5.99
2023-04-02T00:49:53.972Z,5.98
2023-04-02T00:50:53.939Z,5.93
2023-04-02T00:51:53.961Z,5.87
2023-04-02T00:52:53.953Z,5.84
2023-04-02T00:53:53.941Z,5.80
2023-04-02T00:54:53.893Z,5.82
2023-04-02T00:55:53.909Z,5.82
2023-04-02T00:56:53.912Z,5.82
2023-04-02T00:57:53.885Z,5.79
2023-04-02T00:58:53.882Z,5.84
2023-04-02T00:59:53.880Z,5.86
2023-04-02T01:00:53.849Z,5.87
2023-04-02T01:01:53.859Z,5.86
2023-04-02T01:02:53.872Z,5.84
2023-04-02T01:03:53.919Z,5.86
2023-04-02T01:04:53.819Z,5.82
2023-04-02T01:05:53.806Z,5.84
2023-04-02T01:06:53.770Z,5.84
2023-04-02T01:07:53.790Z,5.80
2023-04-02T01:08:53.744Z,5.82
2023-04-02T01:09:53.758Z,5.83
2023-04-02T01:10:53.737Z,5.80
2023-04-02T01:11:53.780Z,5.75
2023-04-02T01:12:53.703Z,5.76
2023-04-02T01:13:53.721Z,5.82
2023-04-02T01:14:53.686Z,5.79
2023-04-02T01:15:53.752Z,5.75
2023-04-02T01:16:53.700Z,5.72
2023-04-02T01:17:53.685Z,5.68
2023-04-02T01:18:53.642Z,5.65
2023-04-02T01:19:53.650Z,5.71
2023-04-02T01:20:53.629Z,5.72
2023-04-02T01:21:53.638Z,5.71
2023-04-02T01:22:53.607Z,5.65
2023-04-02T01:23:53.651Z,5.68
2023-04-02T01:24:53.574Z,5.65
2023-04-02T01:25:53.583Z,5.62
2023-04-02T01:26:53.570Z,5.69
2023-04-02T01:27:53.561Z,5.68
2023-04-02T01:28:53.538Z,5.69
2023-04-02T01:29:53.553Z,5.64
2023-04-02T01:30:53.547Z,5.64
2023-04-02T01:31:53.543Z,5.59
2023-04-02T01:32:53.543Z,5.59
2023-04-02T01:33:53.546Z,5.61
2023-04-02T01:34:53.485Z,5.62
2023-04-02T01:35:53.500Z,5.57
2023-04-02T01:36:53.461Z,5.59
2023-04-02T01:37:53.459Z,5.62
2023-04-02T01:38:53.427Z,5.65
2023-04-02T01:39:53.457Z,5.62
2023-04-02T01:40:53.412Z,5.57
2023-04-02T01:41:53.436Z,5.61
2023-04-02T01:42:53.394Z,5.57
2023-04-02T01:43:53.399Z,5.57
2023-04-02T01:44:53.376Z,5.56
2023-04-02T01:45:53.376Z,5.56
2023-04-02T01:46:53.449Z,5.56
2023-04-02T01:47:53.466Z,5.53
2023-04-02T01:48:53.331Z,5.53
2023-04-02T01:49:53.334Z,5.57
2023-04-02T01:50:53.304Z,5.54
2023-04-02T01:51:53.334Z,5.50
2023-04-02T01:52:53.288Z,5.50
2023-04-02T01:53:53.300Z,5.50
2023-04-02T01:54:53.260Z,5.51
2023-04-02T01:55:53.326Z,5.47
2023-04-02T01:56:53.286Z,5.48
2023-04-02T01:57:53.253Z,5.46
2023-04-02T01:58:53.227Z,5.43
2023-04-02T01:59:53.230Z,5.38
2023-04-02T02:00:53.282Z,5.38
2023-04-02T02:01:53.257Z,5.33
2023-04-02T02:02:53.234Z,5.30
2023-04-02T02:03:53.212Z,5.28
2023-04-02T02:04:53.160Z,5.28
2023-04-02T02:05:53.203Z,5.25
2023-04-02T02:06:53.135Z,5.32
2023-04-02T02:07:53.149Z,5.28
2023-04-02T02:08:53.109Z,5.30
2023-04-02T02:09:53.165Z,5.29
2023-04-02T02:10:53.086Z,5.23
2023-04-02T02:11:53.132Z,5.28
2023-04-02T02:12:53.072Z,5.32
2023-04-02T02:13:53.117Z,5.32
2023-04-02T02:14:53.054Z,5.33
2023-04-02T02:15:53.075Z,5.30
2023-04-02T02:16:53.032Z,5.35
2023-04-02T02:17:53.127Z,5.33
2023-04-02T02:18:53.013Z,5.38
2023-04-02T02:19:53.033Z,5.33
2023-04-02T02:20:53.016Z,5.32
2023-04-02T02:21:53.023Z,5.29
2023-04-02T02:22:52.982Z,5.29
2023-04-02T02:23:52.994Z,5.23
2023-04-02T02:24:52.976Z,5.26
2023-04-02T02:25:52.988Z,5.26
2023-04-02T02:26:52.943Z,5.25
2023-04-02T02:27:52.937Z,5.25
2023-04-02T02:28:52.899Z,5.21
2023-04-02T02:29:52.922Z,5.21
2023-04-02T02:30:52.906Z,5.23
2023-04-02T02:31:52.991Z,5.23
2023-04-02T02:32:52.900Z,5.25
2023-04-02T02:33:52.889Z,5.25
2023-04-02T02:34:52.844Z,5.25
2023-04-02T02:35:52.893Z,5.25
2023-04-02T02:36:52.858Z,5.29
2023-04-02T02:37:52.843Z,5.29
2023-04-02T02:38:54.433Z,5.29
2023-04-02T02:39:52.828Z,5.30
2023-04-02T02:40:52.776Z,5.29
2023-04-02T02:41:52.790Z,5.26
2023-04-02T02:42:52.753Z,5.21
2023-04-02T02:43:52.782Z,5.21
2023-04-02T02:44:52.760Z,5.17
2023-04-02T02:45:52.810Z,5.21
2023-04-02T02:46:52.761Z,5.17
2023-04-02T02:47:52.793Z,5.10
2023-04-02T02:48:52.698Z,5.14
2023-04-02T02:49:52.736Z,5.08
2023-04-02T02:50:52.687Z,5.04
2023-04-02T02:51:52.682Z,5.08
2023-04-02T02:52:52.691Z,5.07
2023-04-02T02:53:52.655Z,5.04
2023-04-02T02:54:52.639Z,5.04
2023-04-02T02:55:52.632Z,5.05
2023-04-02T02:56:52.653Z,5.02
2023-04-02T02:57:52.618Z,5.07
2023-04-02T02:58:52.583Z,5.07
2023-04-02T02:59:52.605Z,5.04
2023-04-02T03:00:52.570Z,5.04
2023-04-02T03:01:52.579Z,5.05
2023-04-02T03:02:52.804Z,5.08
2023-04-02T03:03:52.627Z,5.05
2023-04-02T03:04:52.520Z,4.99
2023-04-02T03:05:52.565Z,4.97
2023-04-02T03:06:52.496Z,4.94
2023-04-02T03:07:52.521Z,4.97
2023-04-02T03:08:52.497Z,4.97
2023-04-02T03:09:52.503Z,4.94
2023-04-02T03:10:52.468Z,4.92
2023-04-02T03:11:52.480Z,4.90
2023-04-02T03:12:52.438Z,4.93
2023-04-02T03:13:52.452Z,4.94
2023-04-02T03:14:52.422Z,4.93
2023-04-02T03:15:52.485Z,4.94
2023-04-02T03:16:52.398Z,4.90
2023-04-02T03:17:52.474Z,4.86
2023-04-02T03:18:52.372Z,4.86
2023-04-02T03:19:52.397Z,4.82
2023-04-02T03:20:52.370Z,4.87
2023-04-02T03:21:52.379Z,4.87
2023-04-02T03:22:52.348Z,4.86
2023-04-02T03:23:52.352Z,4.84
2023-04-02T03:24:52.345Z,4.78
2023-04-02T03:25:52.340Z,4.78
2023-04-02T03:26:52.328Z,4.78
2023-04-02T03:27:52.298Z,4.74
2023-04-02T03:28:52.314Z,4.73
2023-04-02T03:29:52.307Z,4.71
2023-04-02T03:30:52.281Z,4.71
2023-04-02T03:31:52.280Z,4.74
2023-04-02T03:32:52.293Z,4.68
2023-04-02T03:33:52.258Z,4.63
2023-04-02T03:34:52.207Z,4.63
2023-04-02T03:35:52.230Z,4.67
2023-04-02T03:36:52.237Z,4.66
2023-04-02T03:37:52.222Z,4.66
2023-04-02T03:38:52.185Z,4.62
2023-04-02T03:39:52.192Z,4.62
2023-04-02T03:40:52.159Z,4.60
2023-04-02T03:41:52.161Z,4.62
2023-04-02T03:42:52.142Z,4.63
2023-04-02T03:43:52.150Z,4.66
2023-04-02T03:44:52.113Z,4.62
2023-04-02T03:45:52.127Z,4.62
2023-04-02T03:46:52.168Z,4.58
2023-04-02T03:47:52.152Z,4.56
2023-04-02T03:48:52.106Z,4.62
2023-04-02T03:49:52.071Z,4.60
2023-04-02T03:50:52.048Z,4.56
2023-04-02T03:51:52.067Z,4.56
2023-04-02T03:52:52.031Z,4.53
2023-04-02T03:53:52.059Z,4.50
2023-04-02T03:54:54.020Z,4.49
2023-04-02T03:55:52.049Z,4.48
2023-04-02T03:56:51.995Z,4.48
2023-04-02T03:57:51.995Z,4.49
2023-04-02T03:58:51.989Z,4.52
2023-04-02T03:59:51.998Z,4.55
2023-04-02T04:00:51.968Z,4.55
2023-04-02T04:01:51.979Z,4.53
2023-04-02T04:02:51.935Z,4.53
2023-04-02T04:03:52.031Z,4.52
2023-04-02T04:04:51.913Z,4.50
2023-04-02T04:05:51.917Z,4.49
2023-04-02T04:06:51.877Z,4.44
2023-04-02T04:07:51.885Z,4.41
2023-04-02T04:08:51.856Z,4.40
2023-04-02T04:09:51.882Z,4.40
2023-04-02T04:10:51.863Z,4.35
2023-04-02T04:11:51.851Z,4.32
2023-04-02T04:12:51.833Z,4.35
2023-04-02T04:13:51.830Z,4.28
2023-04-02T04:14:51.797Z,4.32
2023-04-02T04:15:51.801Z,4.30
2023-04-02T04:16:51.785Z,4.30
2023-04-02T04:17:51.869Z,4.32
2023-04-02T04:18:51.748Z,4.28
2023-04-02T04:19:51.778Z,4.28
2023-04-02T04:20:51.726Z,4.22
2023-04-02T04:21:51.741Z,4.22
2023-04-02T04:22:51.720Z,4.26
2023-04-02T04:23:51.746Z,4.23
2023-04-02T04:24:51.689Z,4.26
2023-04-02T04:25:51.706Z,4.20
2023-04-02T04:26:51.664Z,4.20
2023-04-02T04:27:51.691Z,4.16
2023-04-02T04:28:51.641Z,4.14
2023-04-02T04:29:51.679Z,4.17
2023-04-02T04:30:51.621Z,4.14
2023-04-02T04:31:51.731Z,4.16
2023-04-02T04:32:51.626Z,4.20
2023-04-02T04:33:51.615Z,4.23
2023-04-02T04:34:51.594Z,4.23
2023-04-02T04:35:51.629Z,4.22
2023-04-02T04:36:51.581Z,4.20
2023-04-02T04:37:51.563Z,4.17
2023-04-02T04:38:51.566Z,4.20
2023-04-02T04:39:51.532Z,4.19
2023-04-02T04:40:51.538Z,4.20
2023-04-02T04:41:51.541Z,4.28
2023-04-02T04:42:51.539Z,4.19
2023-04-02T04:43:51.494Z,4.19
2023-04-02T04:44:51.502Z,4.20
2023-04-02T04:45:51.522Z,4.14
2023-04-02T04:46:51.480Z,4.12
2023-04-02T04:47:51.511Z,4.13
2023-04-02T04:48:51.481Z,4.10
2023-04-02T04:49:51.425Z,4.05
2023-04-02T04:50:51.459Z,4.04
2023-04-02T04:51:51.413Z,4.04
2023-04-02T04:52:51.434Z,4.04
2023-04-02T04:53:51.437Z,4.06
2023-04-02T04:54:51.398Z,4.08
2023-04-02T04:55:51.363Z,4.08
2023-04-02T04:56:51.402Z,4.13
2023-04-02T04:57:51.355Z,4.10
2023-04-02T04:58:51.359Z,4.13
2023-04-02T04:59:51.342Z,4.17
2023-04-02T05:00:51.333Z,4.13
2023-04-02T05:01:51.414Z,4.16
2023-04-02T05:02:51.350Z,4.14
2023-04-02T05:03:51.283Z,4.13
2023-04-02T05:04:51.372Z,4.02
2023-04-02T05:05:51.276Z,4.02
2023-04-02T05:06:51.272Z,4.05
2023-04-02T05:07:51.254Z,4.05
2023-04-02T05:08:51.297Z,4.04
2023-04-02T05:09:51.216Z,4.06
2023-04-02T05:10:51.241Z,4.08
2023-04-02T05:11:51.207Z,4.06
2023-04-02T05:12:51.228Z,4.10
2023-04-02T05:13:51.186Z,4.08
2023-04-02T05:14:51.191Z,4.04
2023-04-02T05:15:51.214Z,4.08
2023-04-02T05:16:51.172Z,4.08
2023-04-02T05:17:51.184Z,4.02
2023-04-02T05:18:51.151Z,4.01
2023-04-02T05:19:51.129Z,4.01
2023-04-02T05:20:51.137Z,4.01
2023-04-02T05:21:51.099Z,3.99
2023-04-02T05:22:51.108Z,4.02
2023-04-02T05:23:51.104Z,3.99
2023-04-02T05:24:51.080Z,4.01
2023-04-02T05:25:51.072Z,4.04
2023-04-02T05:26:51.092Z,4.04
2023-04-02T05:27:51.026Z,4.04
2023-04-02T05:28:51.059Z,4.02
2023-04-02T05:29:51.004Z,3.98
2023-04-02T05:30:51.023Z,3.98
2023-04-02T05:31:50.980Z,3.98
2023-04-02T05:32:51.132Z,3.96
2023-04-02T05:33:50.969Z,3.94
2023-04-02T05:34:50.981Z,3.96
2023-04-02T05:35:50.982Z,3.94
2023-04-02T05:36:50.970Z,3.95
2023-04-02T05:37:50.934Z,3.96
2023-04-02T05:38:50.945Z,3.95
2023-04-02T05:39:50.918Z,3.96
2023-04-02T05:40:50.919Z,3.94
2023-04-02T05:41:50.891Z,3.92
2023-04-02T05:42:50.910Z,3.92
2023-04-02T05:43:50.903Z,3.94
2023-04-02T05:44:50.896Z,3.87
2023-04-02T05:45:50.848Z,3.88
2023-04-02T05:46:50.888Z,3.86
2023-04-02T05:47:50.842Z,3.87
2023-04-02T05:48:50.838Z,3.87
2023-04-02T05:49:50.817Z,3.86
2023-04-02T05:50:50.812Z,3.88
2023-04-02T05:51:50.792Z,3.88
2023-04-02T05:52:50.799Z,3.88
2023-04-02T05:53:50.783Z,3.91
2023-04-02T05:54:50.778Z,3.87
2023-04-02T05:55:54.810Z,3.91
2023-04-02T05:56:50.805Z,3.88
2023-04-02T05:58:06.975Z,3.88
2023-04-02T05:58:50.786Z,3.87
2023-04-02T05:59:50.702Z,3.86
2023-04-02T06:00:50.717Z,3.83
2023-04-02T06:01:50.747Z,3.86
2023-04-02T06:02:50.764Z,3.88
2023-04-02T06:03:50.689Z,3.92
2023-04-02T06:04:50.676Z,3.95
2023-04-02T06:05:50.638Z,3.95
2023-04-02T06:06:50.703Z,3.92
2023-04-02T06:07:50.628Z,3.94
2023-04-02T06:08:50.629Z,3.92
2023-04-02T06:09:50.598Z,3.95
2023-04-02T06:10:50.622Z,3.95
2023-04-02T06:11:50.577Z,3.92
2023-04-02T06:12:50.597Z,3.95
2023-04-02T06:13:50.562Z,3.94
2023-04-02T06:14:50.570Z,3.95
2023-04-02T06:15:50.533Z,3.91
2023-04-02T06:16:50.602Z,3.95
2023-04-02T06:17:50.582Z,3.98
2023-04-02T06:18:50.526Z,4.01
2023-04-02T06:19:50.516Z,4.04
2023-04-02T06:20:50.508Z,4.02
2023-04-02T06:21:50.467Z,3.99
2023-04-02T06:22:50.483Z,3.96
2023-04-02T06:23:50.444Z,4.02
2023-04-02T06:24:50.492Z,3.99
2023-04-02T06:25:50.444Z,4.02
2023-04-02T06:26:50.450Z,3.99
2023-04-02T06:27:50.429Z,4.01
2023-04-02T06:28:50.425Z,3.99
2023-04-02T06:29:50.384Z,4.02
2023-04-02T06:30:50.489Z,4.02
2023-04-02T06:31:50.365Z,3.99
2023-04-02T06:32:50.435Z,4.02
2023-04-02T06:33:50.347Z,4.02
2023-04-02T06:34:50.363Z,4.01
2023-04-02T06:35:50.355Z,4.05
2023-04-02T06:36:50.367Z,4.05
2023-04-02T06:37:50.310Z,4.08
2023-04-02T06:38:50.327Z,4.10
2023-04-02T06:39:50.286Z,4.08
2023-04-02T06:40:50.327Z,4.08
2023-04-02T06:41:50.287Z,4.12
2023-04-02T06:42:50.280Z,4.12
2023-04-02T06:43:50.248Z,4.06
2023-04-02T06:44:50.261Z,4.10
2023-04-02T06:45:50.263Z,4.05
2023-04-02T06:46:52.434Z,4.06
2023-04-02T06:47:50.250Z,4.06
2023-04-02T06:48:50.217Z,4.12
2023-04-02T06:49:50.188Z,4.12
2023-04-02T06:50:50.205Z,4.13
2023-04-02T06:51:50.163Z,4.12
2023-04-02T06:52:50.212Z,4.12
2023-04-02T06:53:50.152Z,4.06
2023-04-02T06:54:50.162Z,4.06
2023-04-02T06:55:50.120Z,4.10
2023-04-02T06:56:50.155Z,4.14
2023-04-02T06:57:50.098Z,4.17
2023-04-02T06:58:50.123Z,4.20
2023-04-02T06:59:50.074Z,4.22
2023-04-02T07:00:50.090Z,4.23
2023-04-02T07:01:50.120Z,4.23
2023-04-02T07:02:50.109Z,4.23
2023-04-02T07:03:50.056Z,4.17
2023-04-02T07:04:50.095Z,4.14
2023-04-02T07:05:50.009Z,4.13
2023-04-02T07:06:50.028Z,4.06
2023-04-02T07:07:49.990Z,4.06
2023-04-02T07:08:50.013Z,4.13
2023-04-02T07:09:49.986Z,4.14
2023-04-02T07:10:49.979Z,4.16
2023-04-02T07:11:49.958Z,4.16
2023-04-02T07:12:49.977Z,4.16
2023-04-02T07:13:49.940Z,4.16
2023-04-02T07:14:49.949Z,4.26
2023-04-02T07:15:49.964Z,4.20
2023-04-02T07:16:49.921Z,4.23
2023-04-02T07:17:49.922Z,4.26
2023-04-02T07:18:49.894Z,4.24
2023-04-02T07:19:49.959Z,4.26
2023-04-02T07:20:52.020Z,4.28
2023-04-02T07:21:49.838Z,4.23
2023-04-02T07:22:49.850Z,4.28
2023-04-02T07:23:49.816Z,4.32
2023-04-02T07:24:49.829Z,4.38
2023-04-02T07:25:49.824Z,4.32
2023-04-02T07:26:49.829Z,4.34
2023-04-02T07:27:49.774Z,4.35
2023-04-02T07:28:49.824Z,4.34
2023-04-02T07:29:49.755Z,4.37
2023-04-02T07:30:49.766Z,4.35
2023-04-02T07:31:49.887Z,4.38
2023-04-02T07:32:49.775Z,4.40
2023-04-02T07:33:49.723Z,4.45
2023-04-02T07:34:49.732Z,4.48
2023-04-02T07:35:49.716Z,4.49
2023-04-02T07:36:49.726Z,4.41
2023-04-02T07:37:49.689Z,4.40
2023-04-02T07:38:49.681Z,4.38
2023-04-02T07:39:49.650Z,4.38
2023-04-02T07:40:49.675Z,4.35
2023-04-02T07:41:49.642Z,4.34
2023-04-02T07:42:49.686Z,4.34
2023-04-02T07:43:49.656Z,4.34
2023-04-02T07:44:49.640Z,4.37
2023-04-02T07:45:49.600Z,4.35
2023-04-02T07:46:49.616Z,4.37
2023-04-02T07:47:49.623Z,4.34
2023-04-02T07:48:49.590Z,4.31
2023-04-02T07:49:49.565Z,4.34
2023-04-02T07:50:49.565Z,4.34
2023-04-02T07:51:49.526Z,4.34
2023-04-02T07:52:49.540Z,4.35
2023-04-02T07:53:49.511Z,4.40
2023-04-02T07:54:49.520Z,4.41
2023-04-02T07:55:49.521Z,4.41
2023-04-02T07:56:49.567Z,4.45
2023-04-02T07:57:49.474Z,4.50
2023-04-02T07:58:49.484Z,4.48
2023-04-02T07:59:49.446Z,4.50
2023-04-02T08:00:49.458Z,4.49
2023-04-02T08:01:49.469Z,4.45
2023-04-02T08:02:49.467Z,4.48
2023-04-02T08:03:49.773Z,4.45
2023-04-02T08:04:49.418Z,4.44
2023-04-02T08:05:49.402Z,4.48
2023-04-02T08:06:49.405Z,4.45
2023-04-02T08:07:49.380Z,4.48
2023-04-02T08:08:49.370Z,4.49
2023-04-02T08:09:49.339Z,4.48
2023-04-02T08:10:49.361Z,4.48
2023-04-02T08:11:49.323Z,4.48
2023-04-02T08:12:49.343Z,4.52
2023-04-02T08:13:49.315Z,4.60
2023-04-02T08:14:49.310Z,4.67
2023-04-02T08:15:49.273Z,4.71
2023-04-02T08:16:49.403Z,4.71
2023-04-02T08:17:49.298Z,4.74
2023-04-02T08:18:49.276Z,4.71
2023-04-02T08:19:55.167Z,4.70
2023-04-02T08:20:49.250Z,4.73
2023-04-02T08:21:49.214Z,4.71
2023-04-02T08:22:49.243Z,4.77
2023-04-02T08:23:49.193Z,4.75
2023-04-02T08:24:49.217Z,4.77
2023-04-02T08:25:49.202Z,4.73
2023-04-02T08:26:49.180Z,4.74
2023-04-02T08:27:49.152Z,4.75
2023-04-02T08:28:49.168Z,4.74
2023-04-02T08:29:49.148Z,4.74
2023-04-02T08:30:49.248Z,4.82
2023-04-02T08:31:49.123Z,4.87
2023-04-02T08:32:49.151Z,4.89
2023-04-02T08:33:49.092Z,4.89
2023-04-02T08:34:49.107Z,4.84
2023-04-02T08:35:49.113Z,4.84
2023-04-02T08:36:49.092Z,4.84
2023-04-02T08:37:49.066Z,4.87
2023-04-02T08:38:49.114Z,4.89
2023-04-02T08:39:49.047Z,4.84
2023-04-02T08:40:49.042Z,4.87
2023-04-02T08:41:49.018Z,4.86
2023-04-02T08:42:49.017Z,4.87
2023-04-02T08:43:48.996Z,4.86
2023-04-02T08:44:49.010Z,4.87
2023-04-02T08:45:49.023Z,4.86
2023-04-02T08:46:48.971Z,4.90
2023-04-02T08:47:48.993Z,4.92
2023-04-02T08:48:48.965Z,4.86
2023-04-02T08:49:48.934Z,4.89
2023-04-02T08:50:48.941Z,4.99
2023-04-02T08:51:49.027Z,5.05
2023-04-02T08:52:48.895Z,5.12
2023-04-02T08:53:48.898Z,5.10
2023-04-02T08:54:48.890Z,5.12
2023-04-02T08:55:48.904Z,5.11
2023-04-02T08:56:48.871Z,5.15
2023-04-02T08:57:48.885Z,5.21
2023-04-02T08:58:48.827Z,5.29
2023-04-02T08:59:48.836Z,5.30
2023-04-02T09:00:48.814Z,5.28
2023-04-02T09:01:48.825Z,5.28
2023-04-02T09:02:48.835Z,5.29
2023-04-02T09:03:48.797Z,5.29
2023-04-02T09:04:48.795Z,5.33
2023-04-02T09:05:48.793Z,5.35
2023-04-02T09:06:48.746Z,5.46
2023-04-02T09:07:48.753Z,5.46
2023-04-02T09:08:48.739Z,5.43
2023-04-02T09:09:48.777Z,5.41
2023-04-02T09:10:48.693Z,5.46
2023-04-02T09:11:48.706Z,5.53
2023-04-02T09:12:48.686Z,5.54
2023-04-02T09:13:48.687Z,5.53
2023-04-02T09:14:48.657Z,5.48
2023-04-02T09:15:48.761Z,5.57
2023-04-02T09:16:48.631Z,5.54
2023-04-02T09:17:54.233Z,5.57
2023-04-02T09:18:48.657Z,5.57
2023-04-02T09:19:48.621Z,5.59
2023-04-02T09:20:48.598Z,5.61
2023-04-02T09:21:48.606Z,5.54
2023-04-02T09:22:48.605Z,5.56
2023-04-02T09:23:48.592Z,5.56
2023-04-02T09:24:48.594Z,5.59
2023-04-02T09:26:00.938Z,5.65
2023-04-02T09:26:48.529Z,5.73
2023-04-02T09:27:48.544Z,5.72
2023-04-02T09:28:48.512Z,5.66
2023-04-02T09:29:48.517Z,5.71
2023-04-02T09:30:48.506Z,5.66
2023-04-02T09:31:48.558Z,5.71
2023-04-02T09:32:48.502Z,5.75
2023-04-02T09:33:48.546Z,5.68
2023-04-02T09:34:48.444Z,5.75
2023-04-02T09:35:48.510Z,5.79
2023-04-02T09:36:48.422Z,5.75
2023-04-02T09:37:48.451Z,5.71
2023-04-02T09:38:48.411Z,5.66
2023-04-02T09:39:48.424Z,5.68
2023-04-02T09:40:48.395Z,5.66
2023-04-02T09:41:59.093Z,5.65
2023-04-02T09:42:48.364Z,5.68
2023-04-02T09:43:48.371Z,5.76
2023-04-02T09:44:48.340Z,5.75
2023-04-02T09:45:48.351Z,5.79
2023-04-02T09:46:48.394Z,5.76
2023-04-02T09:47:48.353Z,5.68
2023-04-02T09:48:48.300Z,5.57
2023-04-02T09:49:48.311Z,5.54
2023-04-02T09:50:48.285Z,5.53
2023-04-02T09:51:48.328Z,5.54
2023-04-02T09:52:48.303Z,5.62
2023-04-02T09:53:48.267Z,5.56
2023-04-02T09:54:48.255Z,5.59
2023-04-02T09:55:48.263Z,5.61
2023-04-02T09:56:48.280Z,5.59
2023-04-02T09:57:48.258Z,5.62
2023-04-02T09:58:48.186Z,5.64
2023-04-02T09:59:48.200Z,5.65
2023-04-02T10:00:48.216Z,5.72
2023-04-02T10:01:48.203Z,5.73
2023-04-02T10:02:48.149Z,5.72
2023-04-02T10:03:48.189Z,5.73
2023-04-02T10:04:48.735Z,5.83
2023-04-02T10:05:48.136Z,5.87
2023-04-02T10:06:48.109Z,5.90
2023-04-02T10:07:48.118Z,6.01
2023-04-02T10:08:48.105Z,5.97
2023-04-02T10:09:48.090Z,5.93
2023-04-02T10:10:48.066Z,5.98
2023-04-02T10:11:48.083Z,6.09
2023-04-02T10:12:48.042Z,6.16
2023-04-02T10:13:48.057Z,6.17
2023-04-02T10:14:48.031Z,6.16
2023-04-02T10:15:48.060Z,6.16
2023-04-02T10:16:48.052Z,6.14
2023-04-02T10:17:48.018Z,6.16
2023-04-02T10:18:47.997Z,6.19
2023-04-02T10:19:48.017Z,6.19
2023-04-02T10:20:51.289Z,6.20
2023-04-02T10:21:47.999Z,6.16
2023-04-02T10:22:47.930Z,6.16
2023-04-02T10:23:47.951Z,6.17
2023-04-02T10:24:47.922Z,6.17
2023-04-02T10:25:47.936Z,6.14
2023-04-02T10:26:47.905Z,6.20
2023-04-02T10:27:47.909Z,6.24
2023-04-02T10:28:47.874Z,6.17
2023-04-02T10:29:47.884Z,6.11
2023-04-02T10:30:47.887Z,6.12
2023-04-02T10:31:47.877Z,6.16
2023-04-02T10:32:47.875Z,6.17
2023-04-02T10:33:47.855Z,6.14
2023-04-02T10:34:47.822Z,6.16
2023-04-02T10:35:47.877Z,6.19
2023-04-02T10:36:47.804Z,6.20
2023-04-02T10:37:47.813Z,6.26
2023-04-02T10:38:47.769Z,6.28
2023-04-02T10:39:47.794Z,6.33
2023-04-02T10:40:47.758Z,6.33
2023-04-02T10:41:47.757Z,6.35
2023-04-02T10:42:47.721Z,6.31
2023-04-02T10:43:47.750Z,6.27
2023-04-02T10:44:47.702Z,6.16
2023-04-02T10:45:47.773Z,6.17
2023-04-02T10:46:47.686Z,6.19
2023-04-02T10:47:47.715Z,6.26
2023-04-02T10:48:47.701Z,6.27
2023-04-02T10:49:47.693Z,6.26
2023-04-02T10:50:47.639Z,6.36
2023-04-02T10:51:47.661Z,6.41
2023-04-02T10:52:47.630Z,6.48
2023-04-02T10:53:47.634Z,6.57
2023-04-02T10:54:47.601Z,6.59
2023-04-02T10:55:47.629Z,6.62
2023-04-02T10:56:51.047Z,6.59
2023-04-02T10:57:47.598Z,6.60
2023-04-02T10:58:47.566Z,6.59
2023-04-02T10:59:47.577Z,6.63
2023-04-02T11:00:47.574Z,6.69
2023-04-02T11:01:47.641Z,6.74
2023-04-02T11:02:47.632Z,6.81
2023-04-02T11:03:47.599Z,6.78
2023-04-02T11:04:47.502Z,6.74
2023-04-02T11:05:47.535Z,6.81
2023-04-02T11:06:47.497Z,6.85
2023-04-02T11:07:47.486Z,6.88
2023-04-02T11:08:47.471Z,6.84
2023-04-02T11:09:47.471Z,6.85
2023-04-02T11:10:47.438Z,6.88
2023-04-02T11:11:47.484Z,6.87
2023-04-02T11:12:47.406Z,6.78
2023-04-02T11:13:47.420Z,6.82
2023-04-02T11:14:47.390Z,6.85
2023-04-02T11:15:47.417Z,6.88
2023-04-02T11:16:47.435Z,6.88
2023-04-02T11:17:47.422Z,6.92
2023-04-02T11:18:47.344Z,6.88
2023-04-02T11:19:47.373Z,6.97
2023-04-02T11:20:47.332Z,6.96
2023-04-02T11:21:58.025Z,6.97
2023-04-02T11:22:47.341Z,6.87
2023-04-02T11:23:47.318Z,6.89
2023-04-02T11:24:47.290Z,6.85
2023-04-02T11:25:47.314Z,6.87
2023-04-02T11:26:47.268Z,6.95
2023-04-02T11:27:47.281Z,6.95
2023-04-02T11:28:47.248Z,6.92
2023-04-02T11:29:47.252Z,6.85
2023-04-02T11:30:47.234Z,6.78
2023-04-02T11:31:47.378Z,6.79
2023-04-02T11:32:47.234Z,6.74
2023-04-02T11:33:49.577Z,6.79
2023-04-02T11:34:53.668Z,6.89
2023-04-02T11:35:47.248Z,6.97
2023-04-02T11:36:47.152Z,7.07
2023-04-02T11:37:47.170Z,7.20
2023-04-02T11:38:47.130Z,7.32
2023-04-02T11:39:47.155Z,7.42
2023-04-02T11:40:47.110Z,7.51
2023-04-02T11:41:47.121Z,7.57
2023-04-02T11:42:47.100Z,7.57
2023-04-02T11:43:47.104Z,7.57
2023-04-02T11:44:47.094Z,7.47
2023-04-02T11:45:52.738Z,7.51
2023-04-02T11:46:47.167Z,7.54
2023-04-02T11:47:47.105Z,7.60
2023-04-02T11:48:47.036Z,7.69
2023-04-02T11:49:47.040Z,7.70
2023-04-02T11:50:47.030Z,7.82
2023-04-02T11:51:47.016Z,7.82
2023-04-02T11:52:46.985Z,7.85
2023-04-02T11:53:47.032Z,7.85
2023-04-02T11:54:46.967Z,7.90
2023-04-02T11:55:47.058Z,7.90
2023-04-02T11:56:46.941Z,7.94
2023-04-02T11:57:46.977Z,7.85
2023-04-02T11:58:46.916Z,7.85
2023-04-02T11:59:46.932Z,7.87
2023-04-02T12:00:46.899Z,7.82
2023-04-02T12:01:46.947Z,7.77
2023-04-02T12:02:47.007Z,7.83
2023-04-02T12:03:46.890Z,7.87
2023-04-02T12:04:46.862Z,7.90
2023-04-02T12:05:46.992Z,7.83
2023-04-02T12:06:46.925Z,7.72
2023-04-02T12:07:46.905Z,7.63
2023-04-02T12:08:57.065Z,7.57
2023-04-02T12:09:46.833Z,7.60
2023-04-02T12:10:46.793Z,7.63
2023-04-02T12:11:46.816Z,7.70
2023-04-02T12:12:46.793Z,7.72
2023-04-02T12:13:46.788Z,7.76
2023-04-02T12:14:46.760Z,7.76
2023-04-02T12:15:46.768Z,7.73
2023-04-02T12:16:46.745Z,7.70
2023-04-02T12:17:46.835Z,7.75
2023-04-02T12:18:46.716Z,7.83
2023-04-02T12:19:46.751Z,7.91
2023-04-02T12:20:46.681Z,7.76
2023-04-02T12:21:46.693Z,7.76
2023-04-02T12:22:46.661Z,7.87
2023-04-02T12:23:46.671Z,7.83
2023-04-02T12:24:46.640Z,7.85
2023-04-02T12:25:46.664Z,7.85
2023-04-02T12:26:46.627Z,7.91
2023-04-02T12:27:46.626Z,7.93
2023-04-02T12:28:46.606Z,7.90
2023-04-02T12:29:46.607Z,7.91
2023-04-02T12:30:46.618Z,8.08
2023-04-02T12:31:46.591Z,8.19
2023-04-02T12:32:46.651Z,8.08
2023-04-02T12:33:46.570Z,8.10
2023-04-02T12:34:46.530Z,8.19
2023-04-02T12:35:46.567Z,8.31
2023-04-02T12:36:46.525Z,8.38
2023-04-02T12:37:46.518Z,8.37
2023-04-02T12:38:46.485Z,8.46
2023-04-02T12:39:46.504Z,8.56
2023-04-02T12:40:46.466Z,8.46
2023-04-02T12:41:46.493Z,8.42
2023-04-02T12:42:46.446Z,8.38
2023-04-02T12:43:46.470Z,8.48
2023-04-02T12:44:46.430Z,8.55
2023-04-02T12:45:46.442Z,8.64
2023-04-02T12:46:46.406Z,8.71
2023-04-02T12:47:46.475Z,8.85
2023-04-02T12:48:46.398Z,8.89
2023-04-02T12:49:46.402Z,8.69
2023-04-02T12:50:46.357Z,8.55
2023-04-02T12:51:46.381Z,8.53
2023-04-02T12:52:46.353Z,8.48
2023-04-02T12:53:46.376Z,8.36
2023-04-02T12:54:46.480Z,8.41
2023-04-02T12:55:46.339Z,8.49
2023-04-02T12:56:46.294Z,8.55
2023-04-02T12:57:46.310Z,8.56
2023-04-02T12:58:46.289Z,8.66
2023-04-02T12:59:46.309Z,8.52
2023-04-02T13:00:46.250Z,8.44
2023-04-02T13:01:46.358Z,8.44
2023-04-02T13:02:46.286Z,8.41
2023-04-02T13:03:46.300Z,8.49
2023-04-02T13:04:46.213Z,8.46
2023-04-02T13:05:46.259Z,8.49
2023-04-02T13:06:46.192Z,8.46
2023-04-02T13:07:46.199Z,8.52
2023-04-02T13:08:46.201Z,8.44
2023-04-02T13:09:46.159Z,8.41
2023-04-02T13:10:46.170Z,8.41
2023-04-02T13:11:46.151Z,8.38
2023-04-02T13:12:46.160Z,8.36
2023-04-02T13:13:46.119Z,8.34
2023-04-02T13:14:46.136Z,8.33
2023-04-02T13:15:46.107Z,8.31
2023-04-02T13:16:46.117Z,8.34
2023-04-02T13:17:46.140Z,8.42
2023-04-02T13:18:46.086Z,8.51